Latest Weather Observations for Cocos Island

IDW60801

Issued at 4:13 am WST Tuesday 6 December 2022 (issued every 10 minutes, with the page automatically refreshed every 10 minutes)

About weather observations | Map of weather stations | Latest weather observations for WA | Other Formats
Station Details ID: 200284 Name: COCOS ISLAND AIRPORT Lat: -12.19 Lon: 96.83 Height: 3.0 m
Data from the previous 72 hours. | See also: Recent months at Cocos Island
Date/Time
WST
Temp
°C
App
Temp
°C
Dew
Point
°C
Rel
Hum
%
Delta-T
°C
Wind Press
QNH
hPa
Press
MSL
hPa
Rain since
9am
mm
Dir  Spd
km/h
Gust
km/h
Spd
kts
Gust
kts
06/04:00am 25.7 28.7 22.6 83 2.1 E 11 17 6 9 1009.5 1009.5 0.0
06/03:30am 25.7 29.0 22.6 83 2.1 E 9 15 5 8 1009.7 1009.7 0.0
06/03:00am 25.9 27.8 22.8 83 2.1 E 17 20 9 11 1010.0 1010.0 0.0
06/02:30am 25.9 28.6 22.8 83 2.1 E 13 19 7 10 1010.2 1010.2 0.0
06/02:00am 26.2 28.3 23.1 83 2.1 E 17 20 9 11 1010.6 1010.6 0.0
06/01:30am 26.1 29.7 23.0 83 2.1 ESE 9 15 5 8 1011.1 1011.1 0.0
06/01:00am 26.2 28.1 22.7 81 2.4 E 17 22 9 12 1011.4 1011.4 0.0
06/12:30am 26.4 27.8 22.5 79 2.6 E 19 22 10 12 1011.7 1011.7 0.0
06/12:00am 26.4 27.8 22.5 79 2.6 E 19 22 10 12 1011.8 1011.8 0.0
 
Date/Time
WST
Temp
°C
App
Temp
°C
Dew
Point
°C
Rel
Hum
%
Delta-T
°C
Wind Press
QNH
hPa
Press
MSL
hPa
Rain since
9am
mm
Dir  Spd
km/h
Gust
km/h
Spd
kts
Gust
kts
05/11:30pm 26.6 27.6 22.2 77 3.0 E 20 24 11 13 1011.8 1011.8 0.0
05/11:00pm 26.6 29.6 22.7 79 2.6 E 11 17 6 9 1011.8 1011.8 0.0
05/10:30pm 26.7 29.5 22.3 77 3.0 ESE 11 17 6 9 1011.6 1011.6 0.0
05/10:00pm 26.8 28.6 21.8 74 3.3 E 15 22 8 12 1011.4 1011.4 0.0
05/09:30pm 26.9 28.7 22.5 77 3.0 E 17 20 9 11 1011.1 1011.1 0.0
05/09:00pm 26.7 28.0 21.7 74 3.3 E 17 22 9 12 1010.7 1010.7 0.0
05/08:30pm 26.9 28.5 22.1 75 3.2 E 17 22 9 12 1010.2 1010.2 0.0
05/08:00pm 26.8 29.1 22.0 75 3.2 ENE 13 20 7 11 1009.7 1009.7 0.0
05/07:30pm 27.2 28.9 22.4 75 3.2 E 17 22 9 12 1009.4 1009.4 0.0
05/07:00pm 27.5 29.1 22.2 73 3.6 E 17 22 9 12 1009.0 1009.0 0.0
05/06:30pm 28.6 31.2 22.6 70 4.1 ENE 13 20 7 11 1008.9 1008.9 0.0
05/06:00pm 29.0 30.9 22.0 66 4.7 ENE 15 20 8 11 1008.7 1008.7 0.0
05/05:30pm 29.1 30.9 21.8 64 4.9 ENE 15 20 8 11 1008.7 1008.7 0.0
05/05:00pm 29.7 32.6 22.4 65 5.0 ENE 11 17 6 9 1008.7 1008.7 0.0
05/04:30pm 29.7 32.7 21.9 63 5.3 ENE 9 15 5 8 1008.8 1008.8 0.0
05/04:00pm 29.2 31.4 21.9 64 4.9 ENE 13 19 7 10 1009.0 1009.0 0.0
05/03:30pm 29.6 31.8 22.6 66 4.8 ENE 15 20 8 11 1009.2 1009.2 0.0
05/03:00pm 30.0 33.5 22.9 65 4.9 ENE 9 20 5 11 1009.5 1009.5 0.0
05/02:30pm 29.6 32.6 22.6 66 4.8 ENE 11 19 6 10 1009.7 1009.7 0.0
05/02:00pm 29.7 33.0 23.2 68 4.5 ENE 11 15 6 8 1010.0 1010.0 0.0
05/01:30pm 29.9 33.1 23.1 67 4.7 ENE 11 15 6 8 1010.3 1010.3 0.0
05/01:00pm 29.4 32.0 21.9 64 5.1 ENE 11 15 6 8 1010.6 1010.6 0.0
05/12:30pm 29.7 33.3 22.4 65 5.0 NE 7 13 4 7 1011.0 1011.0 0.0
05/12:00pm 29.7 33.8 23.2 68 4.5 ENE 7 11 4 6 1011.0 1011.0 0.0
05/11:30am 29.4 32.7 22.6 67 4.6 ENE 9 13 5 7 1011.2 1011.2 0.0
05/11:00am 29.2 32.5 23.2 70 4.1 ENE 11 15 6 8 1011.4 1011.4 0.0
05/10:30am 28.5 32.7 23.4 74 3.5 ENE 7 13 4 7 1011.4 1011.4 0.0
05/10:00am 27.6 31.4 22.8 75 3.3 ENE 7 11 4 6 1011.3 1011.3 0.0
05/09:30am 27.1 29.5 22.3 75 3.2 E 13 15 7 8 1011.1 1011.1 0.0
05/09:00am 26.8 29.7 22.4 77 3.0 ENE 11 20 6 11 1010.7 1010.7 0.0
05/08:30am 26.2 29.1 21.8 77 2.9 E 9 15 5 8 1010.6 1010.6 0.0
05/08:00am 26.0 28.9 22.5 81 2.4 E 11 15 6 8 1010.2 1010.2 0.0
05/07:30am 25.5 28.1 22.0 81 2.3 ENE 11 19 6 10 1009.9 1009.9 0.0
05/07:00am 25.3 27.0 22.4 84 1.9 ENE 17 24 9 13 1009.4 1009.4 0.0
05/06:30am 25.3 28.2 22.4 84 1.9 ENE 11 17 6 9 1009.1 1009.1 0.0
05/06:00am 25.3 28.2 22.4 84 1.9 ENE 11 15 6 8 1008.8 1008.8 0.0
05/05:30am 25.3 27.8 22.4 84 1.9 ENE 13 17 7 9 1008.7 1008.7 0.0
05/05:00am 25.4 27.3 22.1 82 2.2 E 15 17 8 9 1008.8 1008.8 0.0
05/04:30am 25.6 27.9 22.7 84 2.0 E 15 19 8 10 1008.9 1008.9 0.0
05/04:00am 25.4 27.9 22.5 84 2.0 ENE 13 17 7 9 1008.8 1008.8 0.0
05/03:30am 25.4 28.3 22.5 84 1.9 ENE 11 15 6 8 1008.9 1008.9 0.0
05/03:00am 25.2 28.5 22.5 85 1.8 E 9 15 5 8 1009.2 1009.2 0.0
05/02:30am 25.0 29.2 23.2 90 1.2 ESE 6 7 3 4 1009.4 1009.4 0.0
05/02:00am 25.4 29.5 23.3 88 1.4 E 7 9 4 5 1009.8 1009.8 0.0
05/01:30am 25.4 28.9 22.9 86 1.7 E 9 13 5 7 1010.2 1010.2 0.0
05/01:00am 25.1 28.1 22.0 83 2.1 ENE 9 11 5 6 1010.6 1010.6 0.0
05/12:30am 25.2 28.8 23.1 88 1.4 NE 9 13 5 7 1011.0 1011.0 0.0
05/12:00am 25.7 28.5 23.0 85 1.8 NE 13 20 7 11 1011.1 1011.1 0.0
 
Date/Time
WST
Temp
°C
App
Temp
°C
Dew
Point
°C
Rel
Hum
%
Delta-T
°C
Wind Press
QNH
hPa
Press
MSL
hPa
Rain since
9am
mm
Dir  Spd
km/h
Gust
km/h
Spd
kts
Gust
kts
04/11:30pm 25.9 26.8 22.6 82 2.2 ENE 22 32 12 17 1011.2 1011.2 0.0
04/11:00pm 26.2 29.6 23.3 84 2.0 E 11 17 6 9 1011.0 1011.0 0.0
04/10:30pm 26.3 30.0 23.2 83 2.1 ESE 9 17 5 9 1011.0 1011.0 0.0
04/10:00pm 26.6 29.2 22.7 79 2.6 E 13 19 7 10 1010.7 1010.7 0.0
04/09:30pm 26.5 29.8 23.2 82 2.2 ESE 11 17 6 9 1010.3 1010.3 0.0
04/09:00pm 26.8 29.8 23.3 81 2.4 E 13 24 7 13 1009.9 1009.9 0.0
04/08:30pm 26.8 30.3 23.5 82 2.3 ESE 11 20 6 11 1009.6 1009.6 0.0
04/08:00pm 26.6 29.7 22.9 80 2.5 ESE 11 15 6 8 1009.0 1009.0 0.0
04/07:30pm 27.1 30.2 22.9 78 2.9 ESE 11 17 6 9 1008.6 1008.6 0.0
04/07:00pm 27.5 29.1 22.9 76 3.1 E 19 22 10 12 1008.3 1008.3 0.0
04/06:30pm 27.7 29.9 23.3 77 3.0 E 17 20 9 11 1008.0 1008.0 0.0
04/06:00pm 27.7 30.2 23.1 76 3.1 E 15 20 8 11 1007.7 1007.7 0.0
04/05:30pm 26.6 29.2 22.7 79 2.6 SE 13 20 7 11 1007.7 1007.7 0.0
04/05:00pm 27.5 29.0 22.7 75 3.3 E 19 24 10 13 1007.8 1007.8 0.0
04/04:30pm 28.4 30.4 22.9 72 3.7 E 17 20 9 11 1008.0 1008.0 0.0
04/04:00pm 28.3 30.3 23.0 73 3.6 E 17 24 9 13 1008.3 1008.3 0.0
04/03:30pm 29.3 31.5 23.3 70 4.1 ENE 17 22 9 12 1008.6 1008.6 0.0
04/03:00pm 28.8 30.9 23.7 74 3.5 ENE 19 26 10 14 1008.8 1008.8 0.0
04/02:30pm 27.8 30.3 23.2 76 3.1 E 15 22 8 12 1009.2 1009.2 0.0
04/02:00pm 28.4 30.6 23.3 74 3.5 E 17 24 9 13 1009.5 1009.5 0.0
04/01:30pm 28.5 31.0 23.2 73 3.6 ESE 15 20 8 11 1009.9 1009.9 0.0
04/01:00pm 27.9 30.1 22.6 73 3.6 ESE 15 20 8 11 1010.0 1010.0 0.0
04/12:30pm 28.4 31.4 23.3 74 3.5 ESE 13 22 7 12 1010.4 1010.4 0.0
04/12:00pm 27.8 30.1 22.7 74 3.5 ESE 15 24 8 13 1010.7 1010.7 0.0
04/11:30am 27.9 30.4 23.1 75 3.3 ESE 15 22 8 12 1010.7 1010.7 0.0
04/11:00am 27.6 29.2 22.8 75 3.3 E 19 24 10 13 1010.8 1010.8 7.4
04/10:30am 27.4 28.8 22.6 75 3.2 SE 19 24 10 13 1010.9 1010.9 7.4
04/10:00am 26.5 27.6 23.0 81 2.4 E 22 28 12 15 1010.8 1010.8 7.4
04/09:30am 26.9 28.8 23.8 83 2.1 ENE 20 26 11 14 1010.6 1010.6 7.4
04/09:00am 26.3 27.1 23.2 83 2.1 E 24 28 13 15 1010.4 1010.4 7.4
04/08:30am 24.8 28.6 23.4 92 1.0 SE 9 13 5 7 1010.3 1010.3 7.4
04/08:00am 23.7 27.5 22.7 94 0.7 ESE 7 11 4 6 1009.9 1009.9 7.4
04/07:49am 23.3 26.5 22.3 94 0.7 E 9 13 5 7 1009.8 1009.8 7.4
04/07:30am 23.5 25.6 22.5 94 0.7 E 15 20 8 11 1009.7 1009.7 7.0
04/07:22am 23.6 25.0 22.6 94 0.7 ESE 19 30 10 16 1009.5 1009.5 6.8
04/07:12am 23.5 25.8 22.1 92 0.9 ESE 13 20 7 11 1009.4 1009.4 6.8
04/07:00am 23.0 24.5 22.0 94 0.7 ESE 17 24 9 13 1009.2 1009.2 6.8
04/06:45am 24.1 26.0 22.7 92 0.9 SE 17 26 9 14 1009.2 1009.2 4.4
04/06:30am 24.3 26.4 22.4 89 1.3 SSE 15 22 8 12 1008.8 1008.8 3.8
04/06:00am 24.0 26.6 22.6 92 0.9 SSE 13 22 7 12 1008.7 1008.7 3.8
04/05:30am 23.7 26.0 22.7 94 0.7 SSW 15 19 8 10 1008.6 1008.6 3.8
04/05:00am 23.3 26.5 22.3 94 0.7 S 9 11 5 6 1008.8 1008.8 3.8
04/04:53am 23.2 26.7 22.2 94 0.7 S 7 9 4 5 1008.8 1008.8 3.8
04/04:30am 23.3 25.7 22.3 94 0.7 SE 13 17 7 9 1008.9 1008.9 3.8
04/04:18am 23.4 24.4 22.2 93 0.8 SE 20 28 11 15 1008.9 1008.9 3.6
04/04:00am 23.7 23.9 22.1 91 1.1 SSE 24 33 13 18 1008.9 1008.9 3.6
04/03:30am 23.9 24.2 22.2 90 1.1 SSE 24 35 13 19 1008.9 1008.9 3.6
04/03:00am 23.2 24.2 22.2 94 0.7 SSE 20 28 11 15 1009.1 1009.1 3.6
04/02:57am 23.2 24.4 22.2 94 0.7 SSE 19 28 10 15 1009.2 1009.2 3.6
04/02:30am 23.0 24.1 22.0 94 0.7 S 19 33 10 18 1009.6 1009.6 3.4
04/02:18am 23.7 25.0 22.3 92 0.9 S 19 22 10 12 1009.7 1009.7 0.2
04/02:00am 24.0 25.3 22.4 91 1.1 S 19 26 10 14 1009.7 1009.7 0.0
04/01:30am 23.1 24.1 22.1 94 0.7 S 20 26 11 14 1010.1 1010.1 0.0
04/01:00am 23.4 22.8 22.0 92 0.9 SSE 28 39 15 21 1010.5 1010.5 0.0
04/12:30am 24.9 25.2 21.6 82 2.2 SSE 22 33 12 18 1010.6 1010.6 0.0
04/12:00am 24.9 25.4 21.2 80 2.4 SSE 20 30 11 16 1010.7 1010.7 0.0
 
Date/Time
WST
Temp
°C
App
Temp
°C
Dew
Point
°C
Rel
Hum
%
Delta-T
°C
Wind Press
QNH
hPa
Press
MSL
hPa
Rain since
9am
mm
Dir  Spd
km/h
Gust
km/h
Spd
kts
Gust
kts
03/11:30pm 25.5 26.2 21.2 77 2.8 SSE 19 26 10 14 1010.6 1010.6 0.0
03/11:00pm 24.8 25.3 21.9 84 1.9 SSE 22 35 12 19 1010.6 1010.6 0.0
03/10:30pm 25.2 25.4 22.1 83 2.1 SSE 24 30 13 16 1010.2 1010.2 0.0
03/10:00pm 25.2 24.6 21.9 82 2.2 SSE 28 37 15 20 1009.8 1009.8 0.0
03/09:30pm 25.8 25.0 20.8 74 3.3 SSE 26 37 14 20 1009.5 1009.5 0.0
03/09:00pm 25.7 26.0 20.7 74 3.3 SSE 20 28 11 15 1009.3 1009.3 0.0
03/08:30pm 25.6 25.1 20.8 75 3.2 SSE 24 33 13 18 1009.2 1009.2 0.0
03/08:00pm 25.7 24.5 20.9 75 3.2 SSE 28 37 15 20 1008.9 1008.9 0.0
03/07:30pm 25.7 24.8 20.7 74 3.3 SSE 26 37 14 20 1008.7 1008.7 0.0
03/07:00pm 25.9 25.0 20.7 73 3.4 SSE 26 39 14 21 1008.2 1008.2 0.0
03/06:30pm 26.6 25.0 20.7 70 3.9 SSE 30 39 16 21 1008.1 1008.1 0.0
03/06:00pm 26.9 26.1 21.6 72 3.5 SSE 28 43 15 23 1007.9 1007.9 0.0
03/05:30pm 27.3 25.5 20.4 66 4.5 S 30 37 16 20 1007.7 1007.7 0.0
03/05:00pm 27.0 25.3 20.6 68 4.2 SSE 30 39 16 21 1007.9 1007.9 0.0
03/04:30pm 27.4 25.0 20.0 64 4.8 SSE 32 43 17 23 1008.0 1008.0 0.0
03/04:00pm 28.5 26.9 20.0 60 5.6 S 28 35 15 19 1008.0 1008.0 0.0
03/03:30pm 28.6 26.6 19.2 56 6.1 S 28 33 15 18 1008.4 1008.4 0.0
03/03:00pm 29.0 27.2 19.6 57 6.1 S 28 33 15 18 1008.7 1008.7 0.0
03/02:30pm 28.9 27.7 19.2 55 6.3 S 24 32 13 17 1009.0 1009.0 0.0
03/02:00pm 28.1 26.3 18.8 57 6.0 S 26 33 14 18 1009.5 1009.5 0.0
03/01:30pm 28.7 26.0 18.5 54 6.5 S 30 35 16 19 1009.8 1009.8 0.0
03/01:00pm 28.1 25.7 18.2 55 6.3 S 28 35 15 19 1010.2 1010.2 0.0
03/12:30pm 28.1 25.9 18.8 57 6.0 S 28 35 15 19 1010.6 1010.6 0.0
03/12:00pm 29.1 27.1 19.1 54 6.5 S 28 35 15 19 1010.9 1010.9 0.0
03/11:30am 28.1 26.3 18.8 57 6.0 S 26 32 14 17 1011.1 1011.1 0.0
03/11:00am 28.0 26.7 19.0 58 5.8 S 24 30 13 16 1011.3 1011.3 0.0
03/10:30am 28.0 26.3 18.1 55 6.3 S 24 32 13 17 1011.4 1011.4 0.0
03/10:00am 27.6 25.7 17.7 54 6.3 S 24 30 13 16 1011.4 1011.4 0.0
03/09:30am 27.4 26.2 18.4 58 5.7 S 22 30 12 16 1011.3 1011.3 0.0
03/09:00am 26.2 25.0 18.3 61 5.0 S 22 28 12 15 1011.0 1011.0 0.0
03/08:30am 25.8 24.7 18.7 65 4.5 S 22 28 12 15 1010.7 1010.7 0.0
03/08:00am 25.6 24.6 18.8 66 4.3 S 22 28 12 15 1010.5 1010.5 0.0
03/07:30am 25.0 23.6 18.0 65 4.4 S 22 28 12 15 1010.2 1010.2 0.0
03/07:00am 24.9 23.7 18.4 67 4.1 S 22 30 12 16 1009.7 1009.7 0.0
03/06:30am 24.8 23.2 18.3 67 4.1 S 24 30 13 16 1009.4 1009.4 0.0
03/06:00am 24.9 23.4 18.6 68 4.0 S 24 32 13 17 1009.2 1009.2 0.0

Other formats

Comma delimited format used in spreadsheet applications
http://www.bom.gov.au/fwo/IDW60801/IDW60801.96996.axf

JavaScript Object Notation format (JSON) in row-major order
http://www.bom.gov.au/fwo/IDW60801/IDW60801.96996.json

Data quality

Most of these data are generated automatically and are frequently updated. Quality checks on data are not normally performed. It is possible for incorrect values to appear. Refer to information at About Latest Weather Observations and please check the disclaimer before using these data.